N18NR KSMO-KBFL
Flight info
| Callsign | N18NR |
|---|---|
| Flight time | N/A |
| Altitude | 6500 |
| Route | VFR |
| Aircraft | C208/L-SDE2E3FGHIJ5LORVWXY/LB1D1 |
Departure
| Time | 2026-04-19 22:45 |
|---|---|
| Airport | Santa Monica Municipal Airport (KSMO) |
Arrival
| Time | N/A |
|---|---|
| Airport | Meadows Field (KBFL) |
| Time | Latitude | Longitude | Altitude | Speed | Heading |
|---|---|---|---|---|---|
| 2026-04-19 22:36 | 34.01604 | -118.45293 | 155 ft | 0 kts | 133° |
| 2026-04-19 22:40 | 34.01602 | -118.45291 | 156 ft | 2 kts | 133° |
| 2026-04-19 22:40 | 34.01589 | -118.45272 | 156 ft | 4 kts | 119° |
| 2026-04-19 22:41 | 34.01588 | -118.45232 | 157 ft | 5 kts | 41° |
| 2026-04-19 22:41 | 34.01628 | -118.45188 | 158 ft | 12 kts | 46° |
| 2026-04-19 22:41 | 34.01698 | -118.45110 | 160 ft | 15 kts | 41° |
| 2026-04-19 22:41 | 34.01765 | -118.45028 | 165 ft | 13 kts | 42° |
| 2026-04-19 22:42 | 34.01830 | -118.44951 | 169 ft | 14 kts | 46° |
| 2026-04-19 22:42 | 34.01895 | -118.44872 | 173 ft | 8 kts | 65° |
| 2026-04-19 22:42 | 34.01858 | -118.44828 | 174 ft | 10 kts | 168° |
| 2026-04-19 22:42 | 34.01751 | -118.44933 | 167 ft | 50 kts | 224° |
| 2026-04-19 22:43 | 34.01404 | -118.45348 | 239 ft | 83 kts | 224° |
| 2026-04-19 22:43 | 34.00955 | -118.45910 | 381 ft | 103 kts | 237° |
| 2026-04-19 22:43 | 34.01047 | -118.46560 | 432 ft | 84 kts | 338° |
| 2026-04-19 22:43 | 34.01594 | -118.46204 | 476 ft | 115 kts | 43° |
| 2026-04-19 22:44 | 34.02231 | -118.45456 | 557 ft | 134 kts | 47° |
| 2026-04-19 22:44 | 34.02652 | -118.44943 | 681 ft | 128 kts | 46° |
| 2026-04-19 22:45 | 34.03088 | -118.44325 | 926 ft | 118 kts | 45° |
| 2026-04-19 22:45 | 34.03681 | -118.43623 | 971 ft | 121 kts | 42° |
| 2026-04-19 22:45 | 34.04289 | -118.42966 | 920 ft | 108 kts | 52° |
| 2026-04-19 22:46 | 34.04382 | -118.42273 | 837 ft | 80 kts | 137° |
| 2026-04-19 22:46 | 34.03879 | -118.42302 | 790 ft | 93 kts | 227° |
| 2026-04-19 22:46 | 34.03471 | -118.42960 | 707 ft | 95 kts | 227° |
| 2026-04-19 22:46 | 34.02977 | -118.43468 | 533 ft | 87 kts | 226° |
| 2026-04-19 22:47 | 34.02585 | -118.43943 | 368 ft | 81 kts | 225° |
| 2026-04-19 22:47 | 34.02196 | -118.44420 | 264 ft | 79 kts | 226° |
| 2026-04-19 22:47 | 34.01841 | -118.44832 | 194 ft | 64 kts | 225° |
| 2026-04-19 22:47 | 34.01556 | -118.45166 | 206 ft | 65 kts | 224° |
| 2026-04-19 22:48 | 34.01189 | -118.45641 | 454 ft | 88 kts | 230° |
| 2026-04-19 22:48 | 34.00739 | -118.46237 | 704 ft | 102 kts | 230° |
| 2026-04-19 22:48 | 34.00281 | -118.46902 | 1097 ft | 95 kts | 242° |
| 2026-04-19 22:48 | 34.00344 | -118.47655 | 1455 ft | 115 kts | 308° |
| 2026-04-19 22:49 | 34.01280 | -118.47875 | 880 ft | 175 kts | 15° |
| 2026-04-19 22:49 | 34.02163 | -118.46797 | 215 ft | 181 kts | 52° |